Time;durP1;ratioP1;P1;durP2;ratioP2;P2;SDS_P1;SDS_P2;PMS_P1;PMS_P2;Temp;Humidity;BMP_temperature;BMP_pressure;BME280_temperature;BME280_humidity;BME280_pressure;Samples;Min_cycle;Max_cycle;Signal;HPM_P1;HPM_P2
2023/01/24 00:01:21;;;;;;;0.47;0.43;;;;;;;8.34;85.58;101825.13;4990724;28;20042;-69
2023/01/24 00:03:49;;;;;;;0.45;0.45;;;;;;;8.44;85.03;101831.88;4997165;28;20042;-70
2023/01/24 00:06:17;;;;;;;0.77;0.60;;;;;;;8.55;84.01;101831.09;5012515;28;20046;-70
2023/01/24 00:08:45;;;;;;;2.63;1.00;;;;;;;8.30;85.13;101825.81;4996292;28;20054;-70
2023/01/24 00:11:14;;;;;;;1.75;1.00;;;;;;;8.34;83.38;101832.47;4992553;28;20042;-70
2023/01/24 00:13:42;;;;;;;1.38;0.90;;;;;;;8.27;84.69;101829.84;4994667;28;20045;-69
2023/01/24 00:16:21;;;;;;;0.75;0.73;;;;;;;8.35;83.17;101828.66;5012521;28;20038;-70
2023/01/24 00:18:49;;;;;;;1.15;0.80;;;;;;;8.22;84.83;101828.88;4999078;28;20404;-69
2023/01/24 00:21:20;;;;;;;0.80;0.80;;;;;;;8.33;83.39;101828.91;4998380;28;20050;-69
2023/01/24 00:23:53;;;;;;;0.75;0.75;;;;;;;8.20;83.04;101831.84;4999254;28;20046;-70
2023/01/24 00:26:23;;;;;;;1.55;1.10;;;;;;;8.45;82.05;101831.66;4999106;28;20062;-70
2023/01/24 00:28:52;;;;;;;1.52;0.70;;;;;;;8.43;82.72;101836.53;4998020;28;20504;-69
2023/01/24 00:31:21;;;;;;;0.60;0.60;;;;;;;8.48;82.09;101841.28;4998650;28;20493;-69
2023/01/24 00:33:49;;;;;;;0.63;0.45;;;;;;;8.43;82.24;101849.31;4981510;28;20057;-70
2023/01/24 00:36:17;;;;;;;0.70;0.70;;;;;;;8.45;81.44;101844.47;4999399;28;20057;-71
2023/01/24 00:38:45;;;;;;;0.80;0.70;;;;;;;8.47;82.46;101845.06;4997744;28;20504;-70
2023/01/24 00:41:13;;;;;;;1.48;0.70;;;;;;;8.42;82.62;101850.41;4998506;28;20042;-69
2023/01/24 00:43:41;;;;;;;1.05;0.90;;;;;;;8.44;81.47;101849.09;4999015;28;20061;-70
2023/01/24 00:46:09;;;;;;;0.70;0.68;;;;;;;8.47;81.93;101850.53;4998509;28;20053;-70
2023/01/24 00:48:37;;;;;;;0.70;0.70;;;;;;;8.39;80.63;101850.84;4998935;28;20054;-70
2023/01/24 00:51:05;;;;;;;0.95;0.80;;;;;;;8.42;79.79;101844.94;4999000;28;20082;-69
2023/01/24 00:53:34;;;;;;;2.72;0.85;;;;;;;8.47;79.66;101856.00;4998843;28;20047;-70
2023/01/24 00:56:02;;;;;;;1.20;0.88;;;;;;;8.53;80.82;101856.97;4997418;28;20042;-70
2023/01/24 00:58:32;;;;;;;1.15;1.05;;;;;;;8.53;79.90;101862.41;4998499;28;20053;-70
2023/01/24 01:01:03;;;;;;;0.65;0.65;;;;;;;8.58;79.66;101866.13;4981205;28;20050;-70
2023/01/24 01:03:32;;;;;;;1.27;0.88;;;;;;;8.53;79.69;101865.16;4981493;28;20057;-70
2023/01/24 01:06:06;;;;;;;1.20;0.90;;;;;;;8.58;80.54;101873.47;4997555;28;20069;-70
2023/01/24 01:08:33;;;;;;;;;;;;;;;8.59;79.80;101877.84;4999288;28;20478;-70
2023/01/24 01:11:02;;;;;;;1.90;1.10;;;;;;;8.54;80.69;101881.28;4997496;28;19929;-70
2023/01/24 01:13:30;;;;;;;0.90;0.90;;;;;;;8.54;78.84;101880.44;4980905;28;20499;-70
2023/01/24 01:16:03;;;;;;;2.10;0.95;;;;;;;8.64;79.91;101875.25;4998829;28;20085;-70
2023/01/24 01:18:32;;;;;;;1.50;1.10;;;;;;;8.68;80.54;101890.09;4998262;28;20046;-70
2023/01/24 01:21:00;;;;;;;0.90;0.90;;;;;;;8.68;79.40;101887.38;4997917;28;20042;-70
2023/01/24 01:23:28;;;;;;;1.45;1.05;;;;;;;8.58;79.90;101882.50;4981232;28;20416;-69
2023/01/24 01:26:02;;;;;;;1.48;0.90;;;;;;;8.72;80.79;101887.72;4981312;28;20519;-70
2023/01/24 01:28:31;;;;;;;1.10;0.90;;;;;;;8.65;80.72;101893.28;4981281;28;20477;-69
2023/01/24 01:30:59;;;;;;;0.70;0.70;;;;;;;8.64;79.16;101879.91;4996259;28;20050;-70
2023/01/24 01:33:28;;;;;;;0.90;0.70;;;;;;;8.69;78.21;101889.03;4993928;28;20034;-69
2023/01/24 01:35:55;;;;;;;0.93;0.70;;;;;;;8.82;77.87;101882.53;4978372;28;20057;-70
2023/01/24 01:38:25;;;;;;;1.08;0.77;;;;;;;8.63;79.39;101892.69;4995509;28;20042;-70
2023/01/24 01:40:53;;;;;;;1.50;1.00;;;;;;;8.61;79.49;101892.13;4994908;28;20049;-70
2023/01/24 01:43:23;;;;;;;0.85;0.80;;;;;;;8.65;79.58;101890.56;4976057;28;20046;-70
2023/01/24 01:46:13;;;;;;;0.95;0.95;;;;;;;8.65;79.15;101893.28;4988730;28;20054;-70
2023/01/24 01:48:48;;;;;;;1.42;1.33;;;;;;;8.74;78.36;101891.88;4976488;28;20073;-70
2023/01/24 01:51:27;;;;;;;0.73;0.73;;;;;;;8.79;78.84;101896.63;4995205;28;20852;-70
2023/01/24 01:54:01;;;;;;;1.17;0.90;;;;;;;8.63;79.27;101900.88;4995146;28;20485;-70
2023/01/24 01:56:39;;;;;;;2.47;1.00;;;;;;;8.74;79.30;101904.69;4995209;28;20042;-70
2023/01/24 01:59:26;;;;;;;1.48;1.33;;;;;;;8.60;80.11;101891.28;4978031;28;20055;-70
2023/01/24 02:01:57;;;;;;;1.92;1.52;;;;;;;8.59;81.36;101897.78;4994330;28;20389;-70
2023/01/24 02:04:30;;;;;;;1.58;0.90;;;;;;;8.76;79.70;101905.31;4995104;28;20042;-70
2023/01/24 02:07:11;;;;;;;1.67;0.93;;;;;;;8.70;80.16;101901.59;4994018;28;20057;-70
2023/01/24 02:09:42;;;;;;;1.10;0.90;;;;;;;8.79;79.09;101907.56;4994512;28;20046;-70
2023/01/24 02:12:18;;;;;;;3.03;1.00;;;;;;;8.78;79.25;101905.91;4994413;28;20065;-70
2023/01/24 02:17:37;;;;;;;1.17;1.08;;;;;;;8.62;80.61;101915.59;4994950;28;20489;-70
2023/01/24 02:20:32;;;;;;;2.78;1.70;;;;;;;8.52;81.66;101905.25;4994403;28;20049;-70
2023/01/24 02:23:21;;;;;;;1.33;1.23;;;;;;;8.48;83.00;101914.94;4994325;28;20492;-70
2023/01/24 02:26:05;;;;;;;1.90;1.30;;;;;;;8.36;83.52;101919.53;4994778;28;20054;-70
2023/01/24 02:28:34;;;;;;;3.25;1.45;;;;;;;8.28;83.38;101918.78;4990809;28;20046;-70
2023/01/24 02:31:03;;;;;;;1.45;1.30;;;;;;;8.21;82.39;101915.31;4993444;28;20049;-70
2023/01/24 02:33:33;;;;;;;1.63;1.45;;;;;;;8.24;83.30;101919.47;4984016;28;20504;-70
2023/01/24 02:36:17;;;;;;;1.42;1.33;;;;;;;8.18;84.11;101923.97;4994500;28;20057;-70
2023/01/24 02:38:52;;;;;;;2.67;1.67;;;;;;;7.97;84.75;101907.03;4992843;28;20504;-71
2023/01/24 02:41:28;;;;;;;1.20;1.10;;;;;;;7.91;85.69;101910.66;4976925;28;20054;-70
2023/01/24 02:44:01;;;;;;;2.13;1.75;;;;;;;7.84;85.87;101909.91;4975580;28;20049;-70
2023/01/24 02:46:30;;;;;;;1.83;1.42;;;;;;;7.64;87.41;101911.00;4993076;28;20054;-70
2023/01/24 02:48:57;;;;;;;3.25;1.95;;;;;;;7.68;88.10;101906.78;4991728;28;20042;-71
2023/01/24 02:54:13;;;;;;;1.77;1.50;;;;;;;7.52;88.09;101902.72;4994255;28;20050;-70
2023/01/24 02:59:27;;;;;;;2.00;1.60;;;;;;;7.28;89.57;101899.84;4973418;28;20042;-70
2023/01/24 03:01:55;;;;;;;1.90;1.50;;;;;;;7.22;89.93;101909.75;4982979;28;20034;-70
2023/01/24 03:04:23;;;;;;;1.85;1.60;;;;;;;7.16;90.20;101905.22;4976794;28;20501;-70
2023/01/24 03:06:51;;;;;;;2.65;2.13;;;;;;;7.09;90.46;101904.44;4976689;28;20378;-70
2023/01/24 03:09:33;;;;;;;1.98;1.67;;;;;;;7.12;90.87;101907.56;4992534;28;20054;-70
2023/01/24 03:34:45;;;;;;;2.55;1.70;;;;;;;7.06;90.30;101913.88;4956900;28;20047;-70
2023/01/24 03:40:13;;;;;;;2.90;1.98;;;;;;;7.24;89.55;101910.34;4972590;28;20051;-70
2023/01/24 04:07:22;;;;;;;1.33;0.95;;;;;;;7.37;89.49;101922.16;5123463;28;20048;-74
2023/01/24 04:10:04;;;;;;;1.27;1.17;;;;;;;7.44;86.82;101920.22;5123727;28;20050;-74
2023/01/24 04:12:38;;;;;;;1.48;1.27;;;;;;;7.44;86.63;101922.13;5106841;28;20040;-74
2023/01/24 04:15:07;;;;;;;1.55;1.02;;;;;;;7.47;86.16;101916.19;5106099;28;20059;-74
2023/01/24 04:17:36;;;;;;;1.40;1.00;;;;;;;7.37;86.51;101916.72;5099538;28;20059;-74
2023/01/24 04:20:07;;;;;;;1.10;1.00;;;;;;;7.36;84.96;101917.78;5096325;28;20064;-74
2023/01/24 04:22:36;;;;;;;1.58;1.05;;;;;;;7.41;85.22;101917.94;5105953;28;20059;-75
2023/01/24 04:25:04;;;;;;;1.42;0.80;;;;;;;7.35;85.81;101919.69;5105297;28;20719;-74
2023/01/24 04:27:33;;;;;;;1.48;1.10;;;;;;;7.31;86.20;101909.44;5107148;28;20051;-74
2023/01/24 04:30:08;;;;;;;0.95;0.85;;;;;;;7.33;85.40;101910.09;5104404;28;20414;-74
2023/01/24 04:32:37;;;;;;;1.10;0.90;;;;;;;7.24;85.96;101918.53;5107725;28;20067;-74
2023/01/24 04:35:22;;;;;;;1.15;0.95;;;;;;;7.32;85.78;101917.41;5106909;28;20054;-74
2023/01/24 04:38:02;;;;;;;1.33;0.95;;;;;;;7.24;85.93;101920.44;5123701;28;20497;-75
2023/01/24 04:40:40;;;;;;;1.30;0.70;;;;;;;7.37;84.81;101930.34;5105931;28;20048;-74
2023/01/24 04:43:08;;;;;;;1.17;1.08;;;;;;;7.43;85.48;101931.34;5123210;28;20051;-74
2023/01/24 04:45:37;;;;;;;1.45;1.00;;;;;;;7.39;85.10;101942.69;5087112;28;20486;-74
2023/01/24 04:48:09;;;;;;;1.45;1.00;;;;;;;7.38;84.89;101941.00;5103791;28;20047;-74
2023/01/24 04:50:37;;;;;;;2.08;1.10;;;;;;;7.44;84.73;101941.19;5099248;28;20044;-74
2023/01/24 04:53:05;;;;;;;0.98;0.85;;;;;;;7.26;84.88;101943.66;5106336;28;20051;-73
2023/01/24 04:55:35;;;;;;;1.23;1.13;;;;;;;7.26;84.86;101938.22;5104130;28;20051;-74
2023/01/24 04:58:02;;;;;;;0.82;0.80;;;;;;;7.41;84.61;101950.63;5122727;28;20043;-74
2023/01/24 05:00:30;;;;;;;1.40;0.90;;;;;;;7.39;85.39;101947.31;5105054;28;20050;-74
2023/01/24 05:02:58;;;;;;;1.30;1.20;;;;;;;7.30;85.58;101943.19;5104806;28;20459;-74
2023/01/24 05:05:26;;;;;;;1.95;1.35;;;;;;;7.12;86.59;101959.28;5092208;28;20036;-74
2023/01/24 05:07:53;;;;;;;1.83;1.35;;;;;;;7.10;87.20;101974.16;5091341;28;20040;-75
2023/01/24 05:10:23;;;;;;;2.85;1.20;;;;;;;7.17;87.85;101961.31;5091141;28;20375;-75
2023/01/24 05:12:52;;;;;;;1.45;1.02;;;;;;;7.03;88.52;101976.09;5090882;28;20046;-74
2023/01/24 05:15:22;;;;;;;1.98;1.40;;;;;;;6.86;89.46;101979.38;5090744;28;20040;-75
2023/01/24 05:17:52;;;;;;;1.33;1.20;;;;;;;6.84;89.98;101970.56;5091475;28;20033;-75
2023/01/24 05:20:23;;;;;;;4.00;1.83;;;;;;;6.61;91.56;101966.56;5108022;28;20054;-74
2023/01/24 05:22:51;;;;;;;3.33;1.70;;;;;;;6.44;93.22;101964.34;5092351;28;20048;-74
2023/01/24 05:25:19;;;;;;;2.90;1.58;;;;;;;6.26;94.46;101970.50;5094228;28;20047;-75
2023/01/24 05:27:47;;;;;;;2.00;1.35;;;;;;;6.22;95.76;101972.00;5092815;28;20055;-76
2023/01/24 05:30:16;;;;;;;2.00;1.90;;;;;;;6.09;96.98;101977.47;5085521;28;20052;-74
2023/01/24 05:32:45;;;;;;;2.85;1.80;;;;;;;6.12;97.18;101975.16;5065845;28;20059;-75
2023/01/24 05:35:12;;;;;;;5.38;2.00;;;;;;;6.06;96.88;101984.16;5091042;28;20059;-75
2023/01/24 05:37:40;;;;;;;2.25;1.75;;;;;;;6.04;97.85;101983.56;5092618;28;20479;-74
2023/01/24 05:40:10;;;;;;;3.47;2.10;;;;;;;5.96;99.60;101987.31;5091239;28;20490;-74
2023/01/24 05:42:43;;;;;;;2.33;2.10;;;;;;;5.94;99.14;101994.84;5092918;28;20055;-74
2023/01/24 05:45:11;;;;;;;3.03;1.95;;;;;;;5.88;99.93;101985.66;5075974;28;20397;-74
2023/01/24 05:47:39;;;;;;;2.72;2.38;;;;;;;5.95;99.75;101998.41;5092488;28;20047;-74
2023/01/24 05:50:10;;;;;;;2.97;2.40;;;;;;;5.95;100.00;101998.41;5092358;28;20049;-74
2023/01/24 05:52:38;;;;;;;2.85;2.03;;;;;;;6.01;100.00;102003.00;5091909;28;20051;-75
2023/01/24 05:55:06;;;;;;;2.40;2.08;;;;;;;6.01;99.91;102005.72;5107581;28;20052;-73
2023/01/24 05:57:37;;;;;;;3.78;2.10;;;;;;;5.98;99.32;102019.72;5090881;28;20052;-75
2023/01/24 06:00:27;;;;;;;5.88;2.05;;;;;;;5.90;99.20;102018.91;5091220;28;20038;-74
2023/01/24 06:03:15;;;;;;;4.80;2.42;;;;;;;5.92;98.81;102015.97;5092527;28;20059;-75
2023/01/24 06:05:49;;;;;;;2.25;1.83;;;;;;;5.87;98.63;102027.47;5091519;28;20059;-75
2023/01/24 06:08:19;;;;;;;2.88;2.42;;;;;;;5.87;99.20;102024.75;5091467;28;20048;-74
2023/01/24 06:10:47;;;;;;;3.08;2.00;;;;;;;5.76;99.72;102044.41;5107281;28;20121;-75
2023/01/24 06:13:15;;;;;;;2.10;1.90;;;;;;;5.61;99.89;102034.63;5090837;28;20052;-74
2023/01/24 06:15:42;;;;;;;3.08;2.65;;;;;;;5.51;100.00;102047.78;5085945;28;20040;-74
2023/01/24 06:18:17;;;;;;;2.88;2.60;;;;;;;5.45;100.00;102048.63;5091504;28;20055;-74
2023/01/24 06:20:46;;;;;;;5.07;2.55;;;;;;;5.58;100.00;102054.03;5081260;28;20049;-74
2023/01/24 06:23:24;;;;;;;3.60;2.08;;;;;;;5.56;100.00;102060.72;5093133;28;20048;-74
2023/01/24 06:25:56;;;;;;;4.55;2.90;;;;;;;5.51;100.00;102055.94;5086998;28;20051;-73
2023/01/24 06:28:24;;;;;;;4.63;2.45;;;;;;;5.56;100.00;102058.84;5093169;28;20516;-75
2023/01/24 06:31:18;;;;;;;3.28;2.72;;;;;;;5.59;100.00;102057.59;5092753;28;20059;-74
2023/01/24 06:34:23;;;;;;;3.80;2.63;;;;;;;5.64;100.00;102063.25;5080105;28;20056;-75
2023/01/24 06:37:17;;;;;;;6.55;3.03;;;;;;;5.67;100.00;102072.84;5073648;28;20052;-76
2023/01/24 06:44:10;;;;;;;3.65;2.53;;;;;;;5.75;100.00;102078.91;5087758;28;20051;-76
2023/01/24 06:46:38;;;;;;;4.00;2.63;;;;;;;5.76;100.00;102064.28;5092275;28;20055;-76
2023/01/24 06:49:06;;;;;;;8.55;3.05;;;;;;;5.67;100.00;102073.66;5088032;28;20063;-75
2023/01/24 06:51:35;;;;;;;4.15;2.78;;;;;;;5.53;100.00;102083.72;5091980;28;20387;-74
2023/01/24 06:54:03;;;;;;;5.93;2.80;;;;;;;5.34;100.00;102067.19;5090142;28;20082;-74
2023/01/24 06:56:31;;;;;;;6.53;3.40;;;;;;;5.18;100.00;102075.75;5092004;28;20047;-78
2023/01/24 06:58:59;;;;;;;5.60;3.22;;;;;;;5.08;100.00;102076.16;5092059;28;20040;-75
2023/01/24 07:01:28;;;;;;;3.90;2.92;;;;;;;5.19;100.00;102074.72;5090565;28;20102;-75
2023/01/24 07:03:56;;;;;;;10.45;4.10;;;;;;;5.11;100.00;102090.16;5090581;28;20561;-75
2023/01/24 07:06:24;;;;;;;4.78;3.65;;;;;;;5.28;100.00;102088.91;5091875;28;20068;-74
2023/01/24 07:08:51;;;;;;;6.50;4.10;;;;;;;5.25;100.00;102080.13;5107728;28;20055;-75
2023/01/24 07:11:22;;;;;;;5.07;3.55;;;;;;;5.13;100.00;102091.81;5091703;28;20048;-76
2023/01/24 07:13:50;;;;;;;5.60;3.97;;;;;;;5.06;100.00;102095.38;5091343;28;20047;-75
2023/01/24 07:16:18;;;;;;;7.60;4.20;;;;;;;4.94;100.00;102097.81;5092317;28;20048;-75
2023/01/24 07:18:46;;;;;;;5.85;3.80;;;;;;;5.15;100.00;102106.00;5092228;28;20058;-76
2023/01/24 07:21:14;;;;;;;6.25;3.90;;;;;;;5.18;100.00;102105.63;5090261;28;20055;-76
2023/01/24 07:23:46;;;;;;;6.90;3.80;;;;;;;5.42;100.00;102108.78;5091370;28;20398;-76
2023/01/24 07:26:15;;;;;;;8.50;4.50;;;;;;;5.57;98.37;102120.25;5092043;28;20055;-75
2023/01/24 07:28:43;;;;;;;6.95;4.10;;;;;;;5.73;97.09;102116.28;5091743;28;20040;-76
2023/01/24 07:31:14;;;;;;;11.43;4.95;;;;;;;5.86;96.73;102123.63;5091520;28;20118;-73
2023/01/24 07:33:42;;;;;;;10.55;4.18;;;;;;;5.98;95.81;102123.81;5091168;28;20052;-73
2023/01/24 07:36:14;;;;;;;6.78;4.10;;;;;;;6.11;94.91;102122.97;5091802;28;20044;-74
2023/01/24 07:38:41;;;;;;;6.95;3.60;;;;;;;6.23;93.90;102115.03;5091395;28;20054;-74
2023/01/24 07:41:10;;;;;;;6.20;3.97;;;;;;;6.37;92.63;102134.88;5091412;28;20486;-74
2023/01/24 07:43:38;;;;;;;6.45;3.70;;;;;;;6.53;92.62;102132.72;5091122;28;20051;-74
2023/01/24 07:46:06;;;;;;;4.82;3.53;;;;;;;6.71;92.74;102140.19;5091916;28;20051;-74
2023/01/24 07:48:36;;;;;;;8.73;4.15;;;;;;;6.86;91.17;102139.94;5090687;28;20071;-74
2023/01/24 07:51:04;;;;;;;4.82;3.40;;;;;;;6.91;90.20;102147.44;5091903;28;20521;-74
2023/01/24 07:53:32;;;;;;;7.30;4.70;;;;;;;7.31;90.64;102157.28;5105908;28;20379;-75
2023/01/24 07:56:00;;;;;;;5.07;3.47;;;;;;;7.34;88.08;102162.28;5091862;28;20067;-75
2023/01/24 07:58:30;;;;;;;7.05;3.47;;;;;;;7.62;87.60;102161.06;5091476;28;20479;-74
2023/01/24 08:00:58;;;;;;;8.20;3.65;;;;;;;7.82;86.56;102160.06;5088291;28;20043;-73
2023/01/24 08:03:26;;;;;;;7.68;4.45;;;;;;;7.96;86.09;102167.06;5089673;28;20075;-74
2023/01/24 08:05:54;;;;;;;4.28;3.70;;;;;;;8.07;85.24;102166.34;5089365;28;20048;-74
2023/01/24 08:08:21;;;;;;;5.03;3.30;;;;;;;8.15;83.38;102167.09;5110020;28;20126;-74
2023/01/24 08:10:49;;;;;;;4.50;3.05;;;;;;;8.27;83.00;102178.13;5092949;28;20040;-74
2023/01/24 08:13:17;;;;;;;4.65;3.10;;;;;;;8.30;82.67;102174.94;5092090;28;20047;-74
2023/01/24 08:15:45;;;;;;;4.78;2.92;;;;;;;8.21;83.55;102182.56;5090572;28;20052;-73
2023/01/24 08:18:13;;;;;;;5.20;3.58;;;;;;;8.39;84.36;102178.19;5091713;28;20063;-75
2023/01/24 08:20:42;;;;;;;4.32;3.15;;;;;;;8.53;82.63;102179.78;5091434;28;20044;-76
2023/01/24 08:23:10;;;;;;;5.57;3.83;;;;;;;8.50;82.09;102182.91;5090217;28;20513;-75
2023/01/24 08:25:37;;;;;;;5.43;3.33;;;;;;;8.99;83.48;102182.16;5090189;28;20063;-75
2023/01/24 08:28:08;;;;;;;5.25;3.53;;;;;;;9.22;80.73;102188.81;5091614;28;20485;-74
2023/01/24 08:30:36;;;;;;;7.63;5.13;;;;;;;9.05;79.66;102192.16;5091531;28;20043;-75
2023/01/24 08:33:06;;;;;;;6.47;4.57;;;;;;;8.95;78.46;102191.91;5091501;28;20044;-74
2023/01/24 08:35:34;;;;;;;7.10;5.07;;;;;;;9.26;78.30;102198.22;5090235;28;20577;-74
2023/01/24 08:38:05;;;;;;;6.28;4.43;;;;;;;9.27;76.60;102188.94;5091414;28;20048;-74
2023/01/24 08:40:33;;;;;;;8.18;4.80;;;;;;;9.59;77.23;102169.59;5094569;28;20052;-74
2023/01/24 08:43:15;;;;;;;8.45;4.55;;;;;;;9.54;74.21;102183.13;5095370;28;20036;-74
2023/01/24 08:45:43;;;;;;;5.93;3.60;;;;;;;9.80;73.70;102179.13;5093195;28;20047;-75
2023/01/24 08:48:11;;;;;;;5.72;4.03;;;;;;;9.99;74.54;102183.66;5094224;28;20048;-75
2023/01/24 08:50:39;;;;;;;4.90;4.00;;;;;;;9.98;72.34;102184.72;5095122;28;20489;-75
2023/01/24 08:53:07;;;;;;;4.93;4.10;;;;;;;10.13;72.23;102193.31;5094925;28;20059;-74
2023/01/24 08:55:35;;;;;;;7.07;3.83;;;;;;;9.83;71.67;102191.50;5094515;28;20063;-74
2023/01/24 08:58:04;;;;;;;6.10;3.85;;;;;;;10.04;72.01;102198.31;5076770;28;20040;-76
2023/01/24 09:00:32;;;;;;;6.47;3.65;;;;;;;10.01;71.41;102200.66;5095194;28;20037;-73
2023/01/24 09:03:01;;;;;;;7.35;4.50;;;;;;;10.38;71.29;102207.81;5093229;28;20052;-75
2023/01/24 09:05:30;;;;;;;5.15;3.65;;;;;;;10.31;70.97;102211.50;5094414;28;20047;-76
2023/01/24 09:07:58;;;;;;;6.07;4.75;;;;;;;10.50;70.28;102213.34;5094148;28;20051;-76
2023/01/24 09:10:26;;;;;;;6.57;4.43;;;;;;;10.72;68.81;102214.34;5094807;28;20044;-75
2023/01/24 09:12:54;;;;;;;4.90;3.75;;;;;;;10.52;68.83;102213.91;5095006;28;20040;-77
2023/01/24 09:15:22;;;;;;;5.70;4.20;;;;;;;10.55;70.22;102213.44;5093866;28;20048;-75
2023/01/24 09:17:51;;;;;;;6.22;4.20;;;;;;;11.01;68.41;102211.66;5092594;28;20048;-75
2023/01/24 09:20:20;;;;;;;7.20;4.85;;;;;;;10.54;69.85;102211.75;5094758;28;20398;-75
2023/01/24 09:22:48;;;;;;;6.88;4.53;;;;;;;10.85;69.40;102209.72;5092800;28;20048;-75
2023/01/24 09:25:16;;;;;;;8.02;4.15;;;;;;;11.31;68.70;102209.81;5094008;28;20524;-76
2023/01/24 09:27:45;;;;;;;6.68;4.47;;;;;;;11.43;66.83;102217.94;5092591;28;20048;-75
2023/01/24 09:30:13;;;;;;;6.10;4.43;;;;;;;11.43;67.31;102212.47;5094344;28;20064;-75
2023/01/24 09:32:43;;;;;;;8.57;4.25;;;;;;;11.38;67.23;102212.38;5094577;28;20043;-75
2023/01/24 09:35:12;;;;;;;7.72;4.57;;;;;;;11.80;67.32;102216.69;5093734;28;20052;-76
2023/01/24 09:37:44;;;;;;;9.52;4.45;;;;;;;11.61;64.13;102208.69;5094312;28;20390;-75
2023/01/24 09:40:21;;;;;;;6.10;4.53;;;;;;;10.72;68.25;102217.09;5093686;28;20044;-76
2023/01/24 09:43:04;;;;;;;9.77;4.30;;;;;;;11.21;66.92;102215.06;5094237;28;20047;-76
2023/01/24 09:45:40;;;;;;;6.40;4.40;;;;;;;10.96;67.13;102225.25;5093524;28;20044;-75
2023/01/24 09:48:13;;;;;;;6.50;4.13;;;;;;;11.51;66.23;102220.31;5094115;28;20055;-75
2023/01/24 09:50:49;;;;;;;5.63;3.78;;;;;;;11.94;64.67;102217.22;5093352;28;20047;-74
2023/01/24 09:53:26;;;;;;;5.13;3.75;;;;;;;12.13;63.54;102226.06;5094125;28;20510;-75
2023/01/24 09:55:55;;;;;;;5.05;3.85;;;;;;;11.60;63.98;102223.50;5093883;28;20395;-76
2023/01/24 09:58:33;;;;;;;4.82;3.88;;;;;;;11.85;63.94;102210.47;5094433;28;20055;-79
2023/01/24 10:01:08;;;;;;;3.58;3.05;;;;;;;12.09;62.90;102225.69;5093299;28;20032;-76
2023/01/24 10:03:37;;;;;;;4.50;3.35;;;;;;;12.00;61.57;102218.94;5093694;28;20048;-75
2023/01/24 10:06:16;;;;;;;4.40;3.08;;;;;;;11.25;63.09;102217.06;5093093;28;20059;-75
2023/01/24 10:08:53;;;;;;;2.97;2.55;;;;;;;11.53;62.84;102217.31;5093889;28;20040;-75
2023/01/24 10:11:47;;;;;;;3.40;2.50;;;;;;;11.78;63.69;102205.97;5093230;28;20044;-76
2023/01/24 10:14:23;;;;;;;4.18;2.72;;;;;;;11.73;60.95;102214.09;5093561;28;20044;-76
2023/01/24 10:17:20;;;;;;;4.57;3.08;;;;;;;11.63;61.69;102214.75;5093576;28;20040;-76
2023/01/24 10:20:05;;;;;;;4.15;2.90;;;;;;;11.79;60.55;102209.56;5093521;28;20052;-76
2023/01/24 10:22:48;;;;;;;4.75;2.90;;;;;;;11.61;62.48;102207.84;5093075;28;20040;-75
2023/01/24 10:25:32;;;;;;;4.38;2.75;;;;;;;12.37;60.30;102209.41;5091295;28;20067;-74
2023/01/24 10:28:04;;;;;;;4.25;2.97;;;;;;;12.32;58.30;102207.41;5093205;28;20048;-74
2023/01/24 10:31:14;;;;;;;5.80;3.47;;;;;;;12.53;57.75;102202.22;5091006;28;20059;-74
2023/01/24 10:33:48;;;;;;;4.38;2.67;;;;;;;12.61;57.00;102203.69;5086695;28;20055;-75
2023/01/24 10:36:31;;;;;;;3.10;2.83;;;;;;;12.50;58.08;102205.44;5092145;28;20052;-76
2023/01/24 10:38:59;;;;;;;5.82;3.53;;;;;;;12.41;60.32;102199.56;5092860;28;20494;-75
2023/01/24 10:41:30;;;;;;;4.03;3.53;;;;;;;12.88;58.07;102195.53;5092048;28;20055;-76
2023/01/24 10:44:05;;;;;;;4.32;3.30;;;;;;;12.84;57.45;102201.78;5092506;28;20052;-76
2023/01/24 10:46:50;;;;;;;4.45;3.00;;;;;;;12.95;56.74;102197.25;5092175;28;20052;-75
2023/01/24 10:49:27;;;;;;;5.60;3.47;;;;;;;12.58;58.75;102191.31;5092814;28;20040;-75
2023/01/24 10:52:13;;;;;;;10.15;3.92;;;;;;;12.21;61.25;102180.88;5092229;28;20040;-75
2023/01/24 10:54:53;;;;;;;6.53;4.18;;;;;;;12.68;59.47;102173.28;5092660;28;20071;-76
2023/01/24 10:57:30;;;;;;;9.10;3.92;;;;;;;13.04;57.05;102177.31;5092883;28;20055;-77
2023/01/24 11:00:27;;;;;;;7.00;3.92;;;;;;;13.38;56.51;102162.53;5092631;28;20398;-76
2023/01/24 11:02:58;;;;;;;6.57;4.18;;;;;;;13.45;55.38;102156.81;5090562;28;20380;-75
2023/01/24 11:05:38;;;;;;;5.82;3.38;;;;;;;13.49;54.33;102163.47;5091884;28;20047;-75
2023/01/24 11:08:16;;;;;;;4.10;2.97;;;;;;;13.08;57.08;102161.13;5092453;28;20044;-74
2023/01/24 11:10:44;;;;;;;4.30;3.10;;;;;;;13.01;56.02;102163.25;5092458;28;20052;-76
2023/01/24 11:13:37;;;;;;;4.45;3.35;;;;;;;12.73;55.72;102171.44;5091656;28;20063;-76
2023/01/24 11:16:17;;;;;;;4.60;2.10;;;;;;;12.73;54.73;102162.34;5090303;28;20679;-74
2023/01/24 11:18:50;;;;;;;3.67;2.20;;;;;;;13.06;54.89;102156.97;5090912;28;20059;-74
2023/01/24 11:21:20;;;;;;;3.38;2.28;;;;;;;13.18;54.81;102152.16;5092767;28;20409;-76
2023/01/24 11:24:06;;;;;;;3.63;2.58;;;;;;;12.78;55.00;102151.44;5091754;28;20044;-87
2023/01/24 11:26:53;;;;;;;3.22;2.53;;;;;;;12.53;55.84;102144.56;5090903;28;20406;-82
2023/01/24 11:29:22;;;;;;;4.40;2.60;;;;;;;12.32;59.57;102147.00;5092731;28;20044;-83
2023/01/24 11:32:31;;;;;;;3.95;2.40;;;;;;;12.27;58.09;102141.44;5092680;28;20304;-87
2023/01/24 11:35:10;;;;;;;2.88;2.13;;;;;;;11.60;59.29;102137.66;5079968;28;20379;-83
2023/01/24 11:37:43;;;;;;;2.50;2.10;;;;;;;11.70;59.59;102140.56;5092615;28;20052;-83
2023/01/24 11:40:40;;;;;;;2.67;2.03;;;;;;;11.98;62.43;102125.09;5089578;28;20086;-83
2023/01/24 11:43:19;;;;;;;4.22;2.15;;;;;;;11.89;59.95;102129.34;5091034;28;20040;-83
2023/01/24 11:46:10;;;;;;;2.90;2.17;;;;;;;12.03;61.15;102127.91;5089154;28;20048;-84
2023/01/24 11:48:51;;;;;;;3.70;2.30;;;;;;;12.08;59.30;102127.19;5091529;28;20052;-84
2023/01/24 11:51:45;;;;;;;2.67;2.22;;;;;;;12.21;60.90;102129.56;5091882;28;20394;-84
2023/01/24 11:54:31;;;;;;;3.55;2.28;;;;;;;11.67;58.91;102127.34;5088126;28;20043;-86
2023/01/24 11:57:14;;;;;;;4.07;2.00;;;;;;;11.98;61.10;102125.09;5091460;28;20055;-84
2023/01/24 12:00:08;;;;;;;3.78;2.60;;;;;;;12.03;59.43;102116.91;5107614;28;20044;-84
2023/01/24 12:03:16;;;;;;;2.95;2.35;;;;;;;11.99;58.36;102114.94;5091766;28;20498;-85
2023/01/24 12:06:15;;;;;;;2.63;2.05;;;;;;;12.16;58.37;102109.44;5089585;28;20047;-87
2023/01/24 12:08:59;;;;;;;2.67;2.15;;;;;;;12.28;58.99;102103.84;5090763;28;20494;-84
2023/01/24 12:11:31;;;;;;;3.25;2.35;;;;;;;12.49;57.41;102092.06;5091962;28;20056;-84
2023/01/24 12:14:28;;;;;;;4.85;2.17;;;;;;;12.25;59.08;102102.44;5090843;28;20067;-80
2023/01/24 12:17:16;;;;;;;7.13;3.40;;;;;;;12.13;60.39;102098.97;5093999;28;20055;-80
2023/01/24 12:19:58;;;;;;;9.75;3.70;;;;;;;12.41;58.98;102097.97;5094166;28;20052;-80
2023/01/24 12:22:28;;;;;;;6.35;3.25;;;;;;;12.45;57.92;102085.41;5094774;28;20044;-82
2023/01/24 12:25:16;;;;;;;7.57;3.70;;;;;;;12.45;59.40;102085.41;5094884;28;20051;-81
2023/01/24 12:27:49;;;;;;;3.38;2.65;;;;;;;12.45;59.39;102081.81;5093810;28;20055;-80
2023/01/24 12:30:17;;;;;;;5.93;2.20;;;;;;;12.56;55.74;102086.34;5095644;28;20043;-80
2023/01/24 12:32:53;;;;;;;2.05;1.80;;;;;;;12.50;57.11;102077.25;5095563;28;20044;-80
2023/01/24 12:35:37;;;;;;;;;;;;;;;12.60;57.00;102075.69;5095384;28;20051;-80
2023/01/24 12:38:13;;;;;;;7.53;3.50;;;;;;;12.37;61.58;102077.63;5093407;28;19953;-79
2023/01/24 12:41:06;;;;;;;7.22;3.47;;;;;;;12.63;58.82;102076.00;5094323;28;20478;-80
2023/01/24 12:44:19;;;;;;;5.22;2.78;;;;;;;12.73;57.44;102079.97;5095325;28;20048;-78
2023/01/24 12:47:04;;;;;;;1.65;1.25;;;;;;;12.83;55.21;102074.59;5074164;28;20048;-80
2023/01/24 12:49:56;;;;;;;2.20;1.30;;;;;;;12.95;55.08;102079.09;5076588;28;20040;-78
2023/01/24 12:52:44;;;;;;;1.48;1.25;;;;;;;12.84;55.77;102070.75;5093654;28;20048;-79
2023/01/24 12:55:20;;;;;;;1.40;1.10;;;;;;;12.88;54.00;102074.63;5093626;28;20059;-78
2023/01/24 12:58:09;;;;;;;1.90;1.15;;;;;;;12.73;55.91;102074.47;5090591;28;20149;-78
2023/01/24 13:00:49;;;;;;;0.80;0.75;;;;;;;12.61;53.78;102074.63;5094195;28;20044;-78
2023/01/24 13:03:41;;;;;;;2.25;1.23;;;;;;;12.50;53.71;102073.66;5094406;28;20048;-79